createdAt,value
2018-07-31T00:01:40.501Z,22.91
2018-07-31T00:04:06.843Z,22.88
2018-07-31T00:06:33.263Z,22.87
2018-07-31T00:08:59.614Z,22.89
2018-07-31T00:11:26.017Z,22.90
2018-07-31T00:13:52.364Z,22.88
2018-07-31T00:16:18.784Z,22.87
2018-07-31T00:18:45.140Z,22.89
2018-07-31T00:21:11.640Z,22.86
2018-07-31T00:23:38.002Z,22.88
2018-07-31T00:26:04.390Z,22.88
2018-07-31T00:28:30.790Z,22.85
2018-07-31T00:30:57.176Z,22.82
2018-07-31T00:33:23.614Z,22.82
2018-07-31T00:35:49.942Z,22.82
2018-07-31T00:38:16.340Z,22.84
2018-07-31T00:40:42.728Z,22.85
2018-07-31T00:43:09.174Z,22.83
2018-07-31T00:45:35.612Z,22.83
2018-07-31T00:48:02.073Z,22.82
2018-07-31T00:50:28.490Z,22.81
2018-07-31T00:52:54.920Z,22.78
2018-07-31T00:55:21.328Z,22.80
2018-07-31T00:57:47.707Z,22.81
2018-07-31T01:00:14.052Z,22.79
2018-07-31T01:02:40.460Z,22.76
2018-07-31T01:05:06.831Z,22.79
2018-07-31T01:07:33.211Z,22.80
2018-07-31T01:09:59.578Z,22.78
2018-07-31T01:12:25.926Z,22.77
2018-07-31T01:14:52.328Z,22.75
2018-07-31T01:17:18.669Z,22.77
2018-07-31T01:19:45.005Z,22.74
2018-07-31T01:22:11.413Z,22.74
2018-07-31T01:24:37.783Z,22.75
2018-07-31T01:27:04.196Z,22.79
2018-07-31T01:29:30.550Z,22.76
2018-07-31T01:31:56.977Z,22.75
2018-07-31T01:34:23.321Z,22.75
2018-07-31T01:36:49.729Z,22.77
2018-07-31T01:39:16.087Z,22.74
2018-07-31T01:41:42.446Z,22.75
2018-07-31T01:44:08.850Z,22.75
2018-07-31T01:46:35.193Z,22.76
2018-07-31T01:49:01.530Z,22.73
2018-07-31T01:51:27.926Z,22.74
2018-07-31T01:53:54.317Z,22.74
2018-07-31T01:56:20.702Z,22.72
2018-07-31T01:58:47.090Z,22.74
2018-07-31T02:01:13.450Z,22.73
2018-07-31T02:03:39.880Z,22.70
2018-07-31T02:06:06.285Z,22.69
2018-07-31T02:08:32.651Z,22.69
2018-07-31T02:10:59.012Z,22.65
2018-07-31T02:13:25.361Z,22.69
2018-07-31T02:15:51.687Z,22.68
2018-07-31T02:18:18.105Z,22.68
2018-07-31T02:20:44.456Z,22.68
2018-07-31T02:23:10.838Z,22.66
2018-07-31T02:25:37.187Z,22.65
2018-07-31T02:28:03.584Z,22.66
2018-07-31T02:30:29.966Z,22.67
2018-07-31T02:32:56.358Z,22.66
2018-07-31T02:35:22.683Z,22.64
2018-07-31T02:37:49.046Z,22.64
2018-07-31T02:40:15.469Z,22.62
2018-07-31T02:42:41.830Z,22.65
2018-07-31T02:45:08.187Z,22.63
2018-07-31T02:47:34.546Z,22.63
2018-07-31T02:50:00.931Z,22.61
2018-07-31T02:52:27.319Z,22.58
2018-07-31T02:54:53.745Z,22.62
2018-07-31T02:57:20.079Z,22.61
2018-07-31T02:59:46.437Z,22.63
2018-07-31T03:02:12.839Z,22.58
2018-07-31T03:04:39.243Z,22.59
2018-07-31T03:07:05.581Z,22.59
2018-07-31T03:09:31.935Z,22.62
2018-07-31T03:11:58.285Z,22.62
2018-07-31T03:14:24.648Z,22.61
2018-07-31T03:16:50.999Z,22.57
2018-07-31T03:19:17.354Z,22.62
2018-07-31T03:21:43.701Z,22.60
2018-07-31T03:24:10.141Z,22.61
2018-07-31T03:26:36.542Z,22.64
2018-07-31T03:29:02.903Z,22.71
2018-07-31T03:31:29.318Z,22.76
2018-07-31T03:33:55.719Z,22.79
2018-07-31T03:36:22.123Z,22.82
2018-07-31T03:38:48.479Z,22.89
2018-07-31T03:41:14.832Z,22.90
2018-07-31T03:43:41.211Z,22.92
2018-07-31T03:46:07.594Z,22.92
2018-07-31T03:48:33.996Z,22.96
2018-07-31T03:51:00.382Z,22.98
2018-07-31T03:53:26.734Z,22.99
2018-07-31T03:55:53.089Z,23.00
2018-07-31T03:58:19.521Z,23.01
2018-07-31T04:00:45.878Z,23.03
2018-07-31T04:03:12.254Z,23.05
2018-07-31T04:05:38.671Z,23.06
2018-07-31T04:08:05.050Z,23.03
2018-07-31T04:10:31.419Z,23.06
2018-07-31T04:12:57.776Z,23.08
2018-07-31T04:15:24.142Z,23.07
2018-07-31T04:17:50.543Z,23.06
2018-07-31T04:20:16.900Z,23.09
2018-07-31T04:22:43.303Z,23.10
2018-07-31T04:25:09.667Z,23.12
2018-07-31T04:27:36.022Z,23.12
2018-07-31T04:30:02.439Z,23.12
2018-07-31T04:32:28.795Z,23.14
2018-07-31T04:34:55.224Z,23.14
2018-07-31T04:37:21.594Z,23.17
2018-07-31T04:39:47.974Z,23.16
2018-07-31T04:42:14.316Z,23.18
2018-07-31T04:44:40.744Z,23.20
2018-07-31T04:47:07.112Z,23.21
2018-07-31T04:49:33.461Z,23.21
2018-07-31T04:51:59.801Z,23.21
2018-07-31T04:54:26.137Z,23.22
2018-07-31T04:56:52.571Z,23.25
2018-07-31T04:59:18.903Z,23.25
2018-07-31T05:01:45.228Z,23.26
2018-07-31T05:04:11.562Z,23.24
2018-07-31T05:06:37.894Z,23.27
2018-07-31T05:09:04.309Z,23.30
2018-07-31T05:11:30.658Z,23.31
2018-07-31T05:13:57.097Z,23.32
2018-07-31T05:16:23.447Z,23.32
2018-07-31T05:18:49.818Z,23.34
2018-07-31T05:21:16.214Z,23.35
2018-07-31T05:23:42.543Z,23.35
2018-07-31T05:26:08.914Z,23.38
2018-07-31T05:28:35.244Z,23.38
2018-07-31T05:31:01.572Z,23.40
2018-07-31T05:33:27.965Z,23.45
2018-07-31T05:35:54.334Z,23.39
2018-07-31T05:38:20.963Z,23.42
2018-07-31T05:40:47.331Z,23.43
2018-07-31T05:43:13.671Z,23.43
2018-07-31T05:45:40.050Z,23.42
2018-07-31T05:48:06.387Z,23.48
2018-07-31T05:50:32.713Z,23.48
2018-07-31T05:59:31.863Z,23.53
2018-07-31T06:01:58.174Z,23.57
2018-07-31T06:04:24.582Z,23.66
2018-07-31T06:06:50.969Z,23.73
2018-07-31T06:09:17.505Z,23.75
2018-07-31T06:11:43.936Z,23.79
2018-07-31T06:14:10.337Z,23.81
2018-07-31T06:16:36.832Z,23.77
2018-07-31T06:19:03.239Z,23.84
2018-07-31T06:21:29.571Z,23.78
2018-07-31T06:23:55.912Z,23.84
2018-07-31T06:26:22.322Z,24.04
2018-07-31T06:28:48.750Z,24.12
2018-07-31T06:31:15.170Z,24.12
2018-07-31T06:33:41.553Z,24.11
2018-07-31T06:36:07.907Z,24.25
2018-07-31T06:38:34.307Z,24.31
2018-07-31T06:41:00.692Z,24.29
2018-07-31T06:43:27.140Z,24.30
2018-07-31T06:45:53.505Z,24.30
2018-07-31T06:48:19.909Z,24.35
2018-07-31T06:50:46.367Z,24.36
2018-07-31T06:53:12.732Z,24.39
2018-07-31T06:55:39.155Z,24.41
2018-07-31T06:58:05.559Z,24.43
2018-07-31T07:00:31.897Z,24.41
2018-07-31T07:02:58.331Z,24.39
2018-07-31T07:05:24.682Z,24.38
2018-07-31T07:07:51.166Z,24.42
2018-07-31T07:10:17.538Z,24.40
2018-07-31T07:12:43.894Z,24.50
2018-07-31T07:15:10.291Z,24.49
2018-07-31T07:17:37.440Z,24.54
2018-07-31T07:20:03.871Z,24.54
2018-07-31T07:22:30.250Z,24.62
2018-07-31T07:24:56.604Z,24.65
2018-07-31T07:27:22.971Z,24.53
2018-07-31T07:29:49.319Z,24.60
2018-07-31T07:32:15.699Z,24.81
2018-07-31T07:34:42.369Z,24.73
2018-07-31T07:37:08.793Z,24.72
2018-07-31T07:42:06.597Z,24.79
2018-07-31T07:44:32.951Z,24.77
2018-07-31T07:47:00.235Z,24.85
2018-07-31T07:49:26.842Z,24.89
2018-07-31T07:51:53.172Z,24.86
2018-07-31T07:54:19.724Z,25.01
2018-07-31T07:59:24.492Z,25.06
2018-07-31T08:01:51.066Z,25.06
2018-07-31T08:04:17.563Z,25.00
2018-07-31T08:06:43.983Z,25.04
2018-07-31T08:09:10.453Z,25.08
2018-07-31T08:11:36.882Z,25.02
2018-07-31T08:14:03.258Z,25.07
2018-07-31T08:16:29.755Z,25.26
2018-07-31T08:18:56.152Z,25.12
2018-07-31T08:21:22.528Z,25.20
2018-07-31T08:26:27.770Z,25.25
2018-07-31T08:28:54.102Z,25.26
2018-07-31T08:31:20.524Z,25.25
2018-07-31T08:33:46.983Z,25.28
2018-07-31T08:36:13.498Z,25.33
2018-07-31T08:38:39.858Z,25.26
2018-07-31T08:41:06.229Z,25.25
2018-07-31T08:43:32.624Z,25.21
2018-07-31T08:45:58.966Z,25.18
2018-07-31T08:48:25.362Z,25.26
2018-07-31T08:53:30.481Z,25.18
2018-07-31T08:55:56.914Z,25.25
2018-07-31T08:58:23.381Z,25.16
2018-07-31T09:00:49.834Z,25.06
2018-07-31T09:03:16.289Z,25.13
2018-07-31T09:05:42.665Z,25.09
2018-07-31T09:08:09.126Z,25.18
2018-07-31T09:10:35.517Z,25.17
2018-07-31T09:13:01.862Z,25.16
2018-07-31T09:15:28.265Z,25.23
2018-07-31T09:17:54.667Z,25.26
2018-07-31T09:20:21.039Z,25.27
2018-07-31T09:22:47.505Z,25.23
2018-07-31T09:25:14.010Z,25.19
2018-07-31T09:27:40.486Z,25.08
2018-07-31T09:30:06.901Z,25.34
2018-07-31T09:32:33.334Z,25.27
2018-07-31T09:34:59.704Z,25.34
2018-07-31T09:37:26.099Z,25.37
2018-07-31T09:39:53.088Z,25.34
2018-07-31T09:42:19.711Z,25.41
2018-07-31T09:44:46.148Z,25.44
2018-07-31T09:47:13.640Z,25.35
2018-07-31T09:49:40.311Z,25.28
2018-07-31T09:52:06.900Z,25.41
2018-07-31T09:54:33.341Z,25.42
2018-07-31T09:56:59.823Z,25.46
2018-07-31T09:59:26.192Z,25.43
2018-07-31T10:01:52.670Z,25.55
2018-07-31T10:04:19.052Z,25.51
2018-07-31T10:06:45.528Z,25.41
2018-07-31T10:09:12.290Z,25.37
2018-07-31T10:11:38.668Z,25.45
2018-07-31T10:14:05.131Z,25.50
2018-07-31T10:16:31.580Z,25.48
2018-07-31T10:18:57.942Z,25.55
2018-07-31T10:21:24.430Z,25.53
2018-07-31T10:23:50.808Z,25.45
2018-07-31T10:26:17.293Z,25.47
2018-07-31T10:28:43.745Z,25.51
2018-07-31T10:31:10.280Z,25.48
2018-07-31T10:33:36.636Z,25.54
2018-07-31T10:36:03.150Z,25.47
2018-07-31T10:38:29.606Z,25.57
2018-07-31T10:40:56.012Z,25.66
2018-07-31T10:43:22.449Z,25.62
2018-07-31T10:45:48.818Z,25.64
2018-07-31T10:48:15.219Z,25.71
2018-07-31T10:50:41.788Z,25.66
2018-07-31T10:53:08.240Z,25.65
2018-07-31T10:55:34.622Z,25.62
2018-07-31T10:58:01.010Z,25.59
2018-07-31T11:00:27.565Z,25.60
2018-07-31T11:02:54.052Z,25.54
2018-07-31T11:05:20.479Z,25.61
2018-07-31T11:07:46.883Z,25.66
2018-07-31T11:10:13.273Z,25.69
2018-07-31T11:12:39.644Z,25.76
2018-07-31T11:15:06.007Z,25.75
2018-07-31T11:17:32.383Z,25.73
2018-07-31T11:19:58.780Z,25.76
2018-07-31T11:22:25.243Z,25.72
2018-07-31T11:24:51.701Z,25.51
2018-07-31T11:27:18.232Z,25.74
2018-07-31T11:29:44.706Z,25.56
2018-07-31T11:32:11.088Z,25.55
2018-07-31T11:34:37.470Z,25.73
2018-07-31T11:37:03.905Z,25.60
2018-07-31T11:39:30.377Z,25.70
2018-07-31T11:41:56.771Z,25.68
2018-07-31T11:44:23.159Z,25.49
2018-07-31T11:46:49.563Z,25.68
2018-07-31T11:49:15.928Z,25.66
2018-07-31T11:51:42.294Z,25.54
2018-07-31T11:54:08.727Z,25.70
2018-07-31T11:56:35.085Z,25.70
2018-07-31T11:59:01.449Z,25.61
2018-07-31T12:01:27.844Z,25.75
2018-07-31T12:03:54.211Z,25.77
2018-07-31T12:06:20.645Z,25.80
2018-07-31T12:08:47.060Z,25.84
2018-07-31T12:11:13.682Z,25.82
2018-07-31T12:13:40.046Z,25.76
2018-07-31T12:16:07.831Z,25.82
2018-07-31T12:18:34.158Z,25.70
2018-07-31T12:21:00.542Z,25.67
2018-07-31T12:23:26.907Z,25.74
2018-07-31T12:25:53.281Z,25.65
2018-07-31T12:28:19.682Z,25.67
2018-07-31T12:30:46.080Z,25.70
2018-07-31T12:33:12.508Z,25.71
2018-07-31T12:35:38.837Z,25.84
2018-07-31T12:38:05.245Z,25.69
2018-07-31T12:40:31.660Z,25.82
2018-07-31T12:42:58.146Z,25.57
2018-07-31T12:45:24.562Z,25.70
2018-07-31T12:47:50.988Z,25.80
2018-07-31T12:50:17.325Z,25.83
2018-07-31T12:52:43.794Z,25.69
2018-07-31T12:55:10.234Z,25.78
2018-07-31T12:57:36.677Z,25.75
2018-07-31T13:00:03.199Z,25.82
2018-07-31T13:02:29.617Z,25.79
2018-07-31T13:04:56.062Z,25.86
2018-07-31T13:07:22.500Z,25.84
2018-07-31T13:09:48.889Z,25.83
2018-07-31T13:12:15.383Z,25.85
2018-07-31T13:14:41.788Z,25.80
2018-07-31T13:17:08.304Z,25.76
2018-07-31T13:19:34.669Z,25.72
2018-07-31T13:22:01.057Z,25.72
2018-07-31T13:24:27.454Z,25.68
2018-07-31T13:26:53.811Z,25.71
2018-07-31T13:29:20.292Z,25.68
2018-07-31T13:31:46.717Z,25.64
2018-07-31T13:34:13.083Z,25.58
2018-07-31T13:36:39.486Z,25.56
2018-07-31T13:39:05.932Z,25.54
2018-07-31T13:41:32.316Z,25.67
2018-07-31T13:43:58.766Z,25.72
2018-07-31T13:46:25.074Z,25.68
2018-07-31T13:48:51.416Z,25.64
2018-07-31T13:51:17.824Z,25.63
2018-07-31T13:53:44.243Z,25.63
2018-07-31T13:56:10.586Z,25.58
2018-07-31T13:58:36.935Z,25.62
2018-07-31T14:01:03.260Z,25.58
2018-07-31T14:03:29.628Z,25.62
2018-07-31T14:05:56.074Z,25.61
2018-07-31T14:08:22.488Z,25.58
2018-07-31T14:10:49.000Z,25.59
2018-07-31T14:13:15.375Z,25.58
2018-07-31T14:15:41.717Z,25.57
2018-07-31T14:18:08.088Z,25.70
2018-07-31T14:20:34.534Z,25.65
2018-07-31T14:23:01.069Z,25.63
2018-07-31T14:25:27.423Z,25.53
2018-07-31T14:27:53.865Z,25.47
2018-07-31T14:30:20.282Z,25.44
2018-07-31T14:32:46.618Z,25.49
2018-07-31T14:35:12.941Z,25.39
2018-07-31T14:37:39.283Z,25.43
2018-07-31T14:40:05.640Z,25.41
2018-07-31T14:42:31.991Z,25.38
2018-07-31T14:44:58.373Z,25.47
2018-07-31T14:47:24.702Z,25.44
2018-07-31T14:49:51.137Z,25.49
2018-07-31T14:52:17.504Z,25.48
2018-07-31T14:54:43.913Z,25.42
2018-07-31T14:57:10.306Z,25.41
2018-07-31T14:59:36.696Z,25.41
2018-07-31T15:02:03.088Z,25.40
2018-07-31T15:04:29.539Z,25.37
2018-07-31T15:06:55.933Z,25.41
2018-07-31T15:09:22.275Z,25.37
2018-07-31T15:11:48.603Z,25.33
2018-07-31T15:14:15.025Z,25.42
2018-07-31T15:16:42.211Z,25.37
2018-07-31T15:19:08.645Z,25.38
2018-07-31T15:21:34.995Z,25.40
2018-07-31T15:24:01.442Z,25.34
2018-07-31T15:26:27.822Z,25.34
2018-07-31T15:28:54.155Z,25.38
2018-07-31T15:31:20.519Z,25.33
2018-07-31T15:33:46.907Z,25.43
2018-07-31T15:36:13.266Z,25.36
2018-07-31T15:38:39.906Z,25.25
2018-07-31T15:41:06.249Z,25.24
2018-07-31T15:43:32.597Z,25.26
2018-07-31T15:45:59.003Z,25.23
2018-07-31T15:48:25.430Z,25.15
2018-07-31T15:50:51.831Z,25.13
2018-07-31T15:53:18.230Z,25.16
2018-07-31T15:55:44.568Z,25.13
2018-07-31T15:58:10.949Z,25.10
2018-07-31T16:00:37.313Z,25.07
2018-07-31T16:03:03.663Z,25.03
2018-07-31T16:05:30.034Z,25.07
2018-07-31T16:07:56.392Z,25.01
2018-07-31T16:10:22.724Z,25.01
2018-07-31T16:12:49.061Z,24.96
2018-07-31T16:15:15.554Z,24.98
2018-07-31T16:17:41.943Z,24.95
2018-07-31T16:20:08.414Z,24.90
2018-07-31T16:22:34.784Z,24.88
2018-07-31T16:25:01.144Z,24.89
2018-07-31T16:27:27.539Z,24.79
2018-07-31T16:29:53.913Z,24.83
2018-07-31T16:32:20.301Z,24.81
2018-07-31T16:34:46.649Z,24.78
2018-07-31T16:37:13.012Z,24.77
2018-07-31T16:39:39.374Z,24.77
2018-07-31T16:42:05.699Z,24.77
2018-07-31T16:44:32.027Z,24.77
2018-07-31T16:46:58.425Z,24.76
2018-07-31T16:49:24.817Z,24.70
2018-07-31T16:51:51.132Z,24.70
2018-07-31T16:54:17.523Z,24.70
2018-07-31T16:56:43.847Z,24.69
2018-07-31T16:59:10.216Z,24.65
2018-07-31T17:01:36.550Z,24.63
2018-07-31T17:04:02.946Z,24.65
2018-07-31T17:06:29.267Z,24.62
2018-07-31T17:08:55.641Z,24.61
2018-07-31T17:11:21.974Z,24.61
2018-07-31T17:13:48.301Z,24.57
2018-07-31T17:16:14.679Z,24.60
2018-07-31T17:18:41.028Z,24.54
2018-07-31T17:21:07.397Z,24.57
2018-07-31T17:23:33.760Z,24.56
2018-07-31T17:26:00.115Z,24.51
2018-07-31T17:28:26.460Z,24.50
2018-07-31T17:30:52.789Z,24.52
2018-07-31T17:33:19.176Z,24.53
2018-07-31T17:35:45.527Z,24.52
2018-07-31T17:38:11.875Z,24.49
2018-07-31T17:40:38.268Z,24.50
2018-07-31T17:43:04.604Z,24.46
2018-07-31T17:45:30.985Z,24.46
2018-07-31T17:47:57.413Z,24.45
2018-07-31T17:50:23.805Z,24.48
2018-07-31T17:52:50.198Z,24.43
2018-07-31T17:55:16.571Z,24.43
2018-07-31T17:57:43.103Z,24.43
2018-07-31T18:00:09.446Z,24.40
2018-07-31T18:02:35.761Z,24.39
2018-07-31T18:05:02.094Z,24.39
2018-07-31T18:07:28.585Z,24.39
2018-07-31T18:09:54.947Z,24.33
2018-07-31T18:12:21.319Z,24.33
2018-07-31T18:14:47.695Z,24.26
2018-07-31T18:17:14.124Z,24.23
2018-07-31T18:19:40.518Z,24.18
2018-07-31T18:22:06.855Z,24.17
2018-07-31T18:24:33.314Z,24.09
2018-07-31T18:26:59.651Z,23.98
2018-07-31T18:29:26.034Z,24.01
2018-07-31T18:31:52.406Z,24.00
2018-07-31T18:34:18.794Z,23.93
2018-07-31T18:36:45.130Z,23.90
2018-07-31T18:39:11.458Z,23.91
2018-07-31T18:41:37.874Z,23.86
2018-07-31T18:44:04.246Z,23.86
2018-07-31T18:46:30.729Z,23.79
2018-07-31T18:48:57.109Z,23.76
2018-07-31T18:51:23.514Z,23.71
2018-07-31T18:53:49.904Z,23.76
2018-07-31T18:56:16.261Z,23.74
2018-07-31T18:58:42.630Z,23.71
2018-07-31T19:01:09.149Z,23.69
2018-07-31T19:03:35.501Z,23.71
2018-07-31T19:06:01.863Z,23.71
2018-07-31T19:08:28.326Z,23.64
2018-07-31T19:10:54.676Z,23.68
2018-07-31T19:13:21.061Z,23.63
2018-07-31T19:15:47.460Z,23.63
2018-07-31T19:18:13.864Z,23.60
2018-07-31T19:20:40.279Z,23.60
2018-07-31T19:23:06.634Z,23.57
2018-07-31T19:25:32.967Z,23.55
2018-07-31T19:27:59.401Z,23.53
2018-07-31T19:30:25.713Z,23.52
2018-07-31T19:32:52.044Z,23.52
2018-07-31T19:35:18.442Z,23.49
2018-07-31T19:37:44.926Z,23.53
2018-07-31T19:40:11.348Z,23.50
2018-07-31T19:42:37.684Z,23.49
2018-07-31T19:45:04.177Z,23.44
2018-07-31T19:47:30.546Z,23.43
2018-07-31T19:49:56.903Z,23.42
2018-07-31T19:52:23.286Z,23.42
2018-07-31T19:54:49.683Z,23.41
2018-07-31T19:57:16.173Z,23.37
2018-07-31T19:59:42.663Z,23.40
2018-07-31T20:02:09.067Z,23.38
2018-07-31T20:04:35.509Z,23.39
2018-07-31T20:07:01.937Z,23.35
2018-07-31T20:09:28.447Z,23.35
2018-07-31T20:11:55.071Z,23.36
2018-07-31T20:14:21.503Z,23.32
2018-07-31T20:16:47.868Z,23.33
2018-07-31T20:19:14.203Z,23.31
2018-07-31T20:21:40.528Z,23.27
2018-07-31T20:24:07.021Z,23.32
2018-07-31T20:26:33.407Z,23.30
2018-07-31T20:28:59.777Z,23.25
2018-07-31T20:31:26.195Z,23.26
2018-07-31T20:33:52.535Z,23.29
2018-07-31T20:36:18.890Z,23.25
2018-07-31T20:38:45.251Z,23.25
2018-07-31T20:41:11.763Z,23.25
2018-07-31T20:43:38.098Z,23.22
2018-07-31T20:46:04.575Z,23.19
2018-07-31T20:48:30.936Z,23.25
2018-07-31T20:50:57.265Z,23.18
2018-07-31T20:53:23.591Z,23.20
2018-07-31T20:55:49.951Z,23.17
2018-07-31T20:58:16.360Z,23.14
2018-07-31T21:00:42.689Z,23.18
2018-07-31T21:03:09.095Z,23.17
2018-07-31T21:05:35.423Z,23.14
2018-07-31T21:08:01.760Z,23.17
2018-07-31T21:10:28.132Z,23.17
2018-07-31T21:12:54.574Z,23.14
2018-07-31T21:15:20.924Z,23.17
2018-07-31T21:17:47.364Z,23.13
2018-07-31T21:20:13.676Z,23.11
2018-07-31T21:22:40.039Z,23.11
2018-07-31T21:25:06.381Z,23.12
2018-07-31T21:27:32.739Z,23.08
2018-07-31T21:29:59.065Z,23.11
2018-07-31T21:32:25.392Z,23.10
2018-07-31T21:34:51.759Z,23.08
2018-07-31T21:37:18.131Z,23.08
2018-07-31T21:39:44.503Z,23.07
2018-07-31T21:42:10.866Z,23.06
2018-07-31T21:44:37.191Z,23.09
2018-07-31T21:47:03.514Z,23.09
2018-07-31T21:49:29.859Z,23.08
2018-07-31T21:51:56.203Z,22.99
2018-07-31T21:54:22.609Z,23.03
2018-07-31T21:56:48.977Z,23.08
2018-07-31T21:59:15.331Z,22.99
2018-07-31T22:01:41.682Z,23.03
2018-07-31T22:04:08.074Z,23.05
2018-07-31T22:06:34.407Z,23.02
2018-07-31T22:09:00.834Z,23.00
2018-07-31T22:11:27.239Z,23.02
2018-07-31T22:13:53.727Z,22.97
2018-07-31T22:16:20.083Z,22.96
2018-07-31T22:18:46.437Z,23.01
2018-07-31T22:21:12.887Z,22.97
2018-07-31T22:23:39.414Z,22.95
2018-07-31T22:26:05.756Z,22.94
2018-07-31T22:28:32.114Z,22.96
2018-07-31T22:30:58.453Z,22.94
2018-07-31T22:33:24.811Z,22.96
2018-07-31T22:35:51.144Z,22.97
2018-07-31T22:38:17.565Z,22.96
2018-07-31T22:40:44.058Z,22.91
2018-07-31T22:43:10.453Z,22.93
2018-07-31T22:45:36.932Z,22.93
2018-07-31T22:48:03.323Z,22.90
2018-07-31T22:50:29.686Z,22.84
2018-07-31T22:52:56.141Z,22.83
2018-07-31T22:55:22.574Z,22.85
2018-07-31T22:57:48.940Z,22.84
2018-07-31T23:00:15.409Z,22.85
2018-07-31T23:02:41.878Z,22.83
2018-07-31T23:05:08.214Z,22.82
2018-07-31T23:07:34.594Z,22.83
2018-07-31T23:10:00.928Z,22.85
2018-07-31T23:12:27.259Z,22.82
2018-07-31T23:14:53.607Z,22.84
2018-07-31T23:17:19.958Z,22.81
2018-07-31T23:19:46.335Z,22.78
2018-07-31T23:22:12.697Z,22.78
2018-07-31T23:24:39.055Z,22.78
2018-07-31T23:27:05.497Z,22.77
2018-07-31T23:29:31.855Z,22.81
2018-07-31T23:31:58.223Z,22.76
2018-07-31T23:34:24.630Z,22.77
2018-07-31T23:36:51.032Z,22.73
2018-07-31T23:39:17.394Z,22.76
2018-07-31T23:41:43.789Z,22.73
2018-07-31T23:44:10.204Z,22.72
2018-07-31T23:46:36.540Z,22.74
2018-07-31T23:49:02.962Z,22.71
2018-07-31T23:51:29.398Z,22.73
2018-07-31T23:53:55.802Z,22.71
2018-07-31T23:56:22.140Z,22.73
2018-07-31T23:58:48.514Z,22.67
